createdAt,value
2019-03-27T00:01:48.951Z,100534.88
2019-03-27T00:04:19.348Z,100526.23
2019-03-27T00:06:49.794Z,100526.97
2019-03-27T00:09:20.206Z,100518.94
2019-03-27T00:11:50.644Z,100519.11
2019-03-27T00:14:20.969Z,100518.59
2019-03-27T00:16:51.411Z,100525.39
2019-03-27T00:19:22.917Z,100525.34
2019-03-27T00:21:53.519Z,100522.54
2019-03-27T00:24:23.908Z,100519.43
2019-03-27T00:26:54.352Z,100518.67
2019-03-27T00:29:24.734Z,100517.69
2019-03-27T00:31:55.117Z,100515.69
2019-03-27T00:34:25.519Z,100509.89
2019-03-27T00:36:55.938Z,100515.02
2019-03-27T00:39:26.323Z,100516.59
2019-03-27T00:41:56.788Z,100519.48
2019-03-27T00:44:31.169Z,100519.18
2019-03-27T00:47:01.583Z,100515.47
2019-03-27T00:49:31.979Z,100518.11
2019-03-27T00:52:02.395Z,100515.01
2019-03-27T00:54:32.795Z,100507.74
2019-03-27T00:57:03.247Z,100504.70
2019-03-27T00:59:33.646Z,100502.70
2019-03-27T01:02:04.119Z,100497.33
2019-03-27T01:04:34.518Z,100497.33
2019-03-27T01:07:04.990Z,100508.11
2019-03-27T01:09:35.598Z,100497.92
2019-03-27T01:12:06.055Z,100496.11
2019-03-27T01:14:36.469Z,100502.73
2019-03-27T01:17:06.932Z,100506.38
2019-03-27T01:19:38.262Z,100505.56
2019-03-27T01:22:09.321Z,100501.42
2019-03-27T01:24:39.714Z,100504.77
2019-03-27T01:27:10.166Z,100504.70
2019-03-27T01:29:40.563Z,100502.49
2019-03-27T01:32:11.010Z,100500.29
2019-03-27T01:34:41.394Z,100503.12
2019-03-27T01:37:11.772Z,100509.19
2019-03-27T01:39:42.179Z,100503.46
2019-03-27T01:42:12.620Z,100501.95
2019-03-27T01:44:43.024Z,100501.66
2019-03-27T01:47:13.459Z,100502.34
2019-03-27T01:49:43.841Z,100500.69
2019-03-27T01:52:14.324Z,100506.92
2019-03-27T01:54:44.730Z,100507.73
2019-03-27T01:57:15.197Z,100507.23
2019-03-27T01:59:45.615Z,100506.42
2019-03-27T02:02:16.061Z,100509.62
2019-03-27T02:04:46.458Z,100511.48
2019-03-27T02:07:16.903Z,100515.53
2019-03-27T02:09:47.312Z,100517.71
2019-03-27T02:12:17.686Z,100514.02
2019-03-27T02:14:48.163Z,100515.17
2019-03-27T02:17:18.605Z,100518.37
2019-03-27T02:19:50.055Z,100517.88
2019-03-27T02:22:20.667Z,100512.84
2019-03-27T02:24:51.094Z,100514.34
2019-03-27T02:27:21.532Z,100508.46
2019-03-27T02:29:51.939Z,100510.30
2019-03-27T02:32:22.375Z,100512.16
2019-03-27T02:34:52.755Z,100512.97
2019-03-27T02:37:23.208Z,100510.45
2019-03-27T02:39:53.598Z,100517.86
2019-03-27T02:42:24.042Z,100516.49
2019-03-27T02:44:54.425Z,100519.20
2019-03-27T02:47:24.865Z,100516.66
2019-03-27T02:49:55.354Z,100512.98
2019-03-27T02:52:25.710Z,100524.27
2019-03-27T02:54:56.116Z,100522.58
2019-03-27T02:57:26.522Z,100524.92
2019-03-27T02:59:56.925Z,100525.23
2019-03-27T03:02:27.351Z,100521.39
2019-03-27T03:04:57.753Z,100517.35
2019-03-27T03:07:28.198Z,100515.02
2019-03-27T03:09:58.606Z,100520.91
2019-03-27T03:12:29.056Z,100517.69
2019-03-27T03:14:59.469Z,100520.88
2019-03-27T03:17:29.950Z,100521.39
2019-03-27T03:20:01.203Z,100519.02
2019-03-27T03:22:31.653Z,100520.71
2019-03-27T03:25:02.047Z,100521.72
2019-03-27T03:27:32.523Z,100525.21
2019-03-27T03:30:02.954Z,100523.88
2019-03-27T03:32:33.547Z,100525.05
2019-03-27T03:35:04.975Z,100534.64
2019-03-27T03:37:35.428Z,100527.37
2019-03-27T03:40:06.343Z,100533.23
2019-03-27T03:42:37.129Z,100534.20
2019-03-27T03:45:08.061Z,100534.17
2019-03-27T03:47:38.527Z,100532.14
2019-03-27T03:50:10.678Z,100537.34
2019-03-27T03:52:45.577Z,100540.83
2019-03-27T03:55:13.368Z,100537.22
2019-03-27T03:57:46.525Z,100538.64
2019-03-27T04:00:16.923Z,100545.64
2019-03-27T04:02:48.077Z,100549.58
2019-03-27T04:05:21.423Z,100542.09
2019-03-27T04:07:51.878Z,100541.72
2019-03-27T04:10:22.271Z,100543.88
2019-03-27T04:12:52.635Z,100555.00
2019-03-27T04:15:23.041Z,100549.03
2019-03-27T04:17:53.510Z,100554.94
2019-03-27T04:20:23.957Z,100545.09
2019-03-27T04:22:54.485Z,100547.36
2019-03-27T04:25:24.882Z,100548.89
2019-03-27T04:27:56.436Z,100552.60
2019-03-27T04:30:26.831Z,100548.73
2019-03-27T04:32:57.278Z,100543.34
2019-03-27T04:35:27.592Z,100546.13
2019-03-27T04:37:57.971Z,100547.65
2019-03-27T04:40:28.355Z,100550.22
2019-03-27T04:42:58.802Z,100549.67
2019-03-27T04:45:29.205Z,100548.45
2019-03-27T04:47:59.582Z,100545.73
2019-03-27T04:50:29.970Z,100552.92
2019-03-27T04:53:00.425Z,100542.78
2019-03-27T04:55:30.809Z,100542.13
2019-03-27T04:58:01.175Z,100547.02
2019-03-27T05:00:31.584Z,100542.95
2019-03-27T05:03:02.011Z,100549.73
2019-03-27T05:05:33.319Z,100552.05
2019-03-27T05:08:03.770Z,100554.46
2019-03-27T05:10:34.117Z,100550.84
2019-03-27T05:13:07.294Z,100553.55
2019-03-27T05:15:37.739Z,100555.87
2019-03-27T05:18:08.132Z,100550.81
2019-03-27T05:20:39.475Z,100556.48
2019-03-27T05:23:10.022Z,100559.47
2019-03-27T05:25:40.423Z,100554.42
2019-03-27T05:28:10.863Z,100555.89
2019-03-27T05:30:41.262Z,100552.88
2019-03-27T05:33:11.732Z,100551.70
2019-03-27T05:35:42.159Z,100544.67
2019-03-27T05:38:12.631Z,100547.23
2019-03-27T05:40:43.018Z,100537.45
2019-03-27T05:43:13.468Z,100530.56
2019-03-27T05:45:43.874Z,100541.59
2019-03-27T05:48:14.335Z,100548.84
2019-03-27T05:50:44.723Z,100550.43
2019-03-27T05:53:15.164Z,100549.59
2019-03-27T05:55:45.578Z,100545.27
2019-03-27T05:58:16.030Z,100545.66
2019-03-27T06:00:46.438Z,100545.42
2019-03-27T06:03:16.841Z,100541.52
2019-03-27T06:05:47.302Z,100542.79
2019-03-27T06:08:17.708Z,100538.83
2019-03-27T06:10:48.121Z,100546.98
2019-03-27T06:13:18.570Z,100543.71
2019-03-27T06:15:48.984Z,100539.48
2019-03-27T06:18:19.373Z,100534.01
2019-03-27T06:20:50.805Z,100536.31
2019-03-27T06:23:21.267Z,100532.25
2019-03-27T06:25:51.702Z,100535.49
2019-03-27T06:28:22.084Z,100532.09
2019-03-27T06:30:52.528Z,100538.72
2019-03-27T06:33:23.125Z,100539.95
2019-03-27T06:35:53.824Z,100538.07
2019-03-27T06:38:24.241Z,100536.21
2019-03-27T06:40:54.753Z,100532.44
2019-03-27T06:43:25.195Z,100525.64
2019-03-27T06:45:58.281Z,100524.20
2019-03-27T06:48:27.740Z,100527.03
2019-03-27T06:50:58.180Z,100533.53
2019-03-27T06:53:28.587Z,100536.63
2019-03-27T06:55:59.031Z,100537.12
2019-03-27T06:58:29.438Z,100532.59
2019-03-27T07:00:59.889Z,100532.39
2019-03-27T07:03:30.297Z,100534.33
2019-03-27T07:06:00.611Z,100534.12
2019-03-27T07:08:30.875Z,100536.55
2019-03-27T07:11:01.225Z,100540.45
2019-03-27T07:13:31.617Z,100535.77
2019-03-27T07:16:02.034Z,100540.48
2019-03-27T07:18:39.967Z,100543.45
2019-03-27T07:21:07.134Z,100535.02
2019-03-27T07:23:37.561Z,100547.89
2019-03-27T07:26:07.873Z,100543.11
2019-03-27T07:28:38.199Z,100546.27
2019-03-27T07:31:08.544Z,100551.22
2019-03-27T07:33:38.941Z,100556.70
2019-03-27T07:36:09.241Z,100551.84
2019-03-27T07:38:39.666Z,100544.98
2019-03-27T07:41:11.151Z,100547.77
2019-03-27T07:43:41.527Z,100551.84
2019-03-27T07:46:11.893Z,100549.33
2019-03-27T07:48:53.294Z,100554.06
2019-03-27T07:51:14.326Z,100566.94
2019-03-27T07:53:45.768Z,100553.14
2019-03-27T07:56:16.104Z,100550.94
2019-03-27T07:58:46.410Z,100549.28
2019-03-27T08:01:16.743Z,100543.73
2019-03-27T08:03:48.613Z,100548.05
2019-03-27T08:06:20.611Z,100541.98
2019-03-27T08:08:51.060Z,100531.63
2019-03-27T08:11:21.474Z,100530.48
2019-03-27T08:13:51.799Z,100539.88
2019-03-27T08:16:22.224Z,100532.30
2019-03-27T08:18:52.513Z,100534.97
2019-03-27T08:21:23.779Z,100540.10
2019-03-27T08:23:54.325Z,100534.97
2019-03-27T08:26:24.732Z,100533.08
2019-03-27T08:28:55.141Z,100533.92
2019-03-27T08:31:25.617Z,100544.36
2019-03-27T08:33:55.918Z,100544.38
2019-03-27T08:36:26.217Z,100541.47
2019-03-27T08:38:57.999Z,100544.80
2019-03-27T08:41:29.872Z,100544.05
2019-03-27T08:44:00.263Z,100550.02
2019-03-27T08:46:30.831Z,100551.19
2019-03-27T08:49:05.710Z,100549.20
2019-03-27T08:51:38.572Z,100540.67
2019-03-27T08:54:12.810Z,100542.41
2019-03-27T08:56:43.008Z,100545.84
2019-03-27T08:59:13.456Z,100540.91
2019-03-27T09:01:43.800Z,100538.30
2019-03-27T09:04:14.146Z,100537.16
2019-03-27T09:06:47.023Z,100529.70
2019-03-27T09:09:17.336Z,100536.00
2019-03-27T09:11:49.152Z,100528.27
2019-03-27T09:14:19.550Z,100539.33
2019-03-27T09:16:49.987Z,100547.27
2019-03-27T09:19:34.493Z,100550.18
2019-03-27T09:21:55.534Z,100541.27
2019-03-27T09:24:27.734Z,100549.78
2019-03-27T09:26:59.284Z,100545.97
2019-03-27T09:29:29.881Z,100550.08
2019-03-27T09:32:00.331Z,100545.13
2019-03-27T09:34:34.520Z,100548.45
2019-03-27T09:37:04.954Z,100546.95
2019-03-27T09:39:38.046Z,100549.02
2019-03-27T09:42:08.571Z,100541.73
2019-03-27T09:44:40.552Z,100536.77
2019-03-27T09:47:12.240Z,100529.28
2019-03-27T09:49:49.761Z,100529.28
2019-03-27T09:52:17.251Z,100535.91
2019-03-27T09:54:47.830Z,100529.94
2019-03-27T09:57:18.248Z,100540.73
2019-03-27T09:59:48.667Z,100534.47
2019-03-27T10:02:21.701Z,100542.92
2019-03-27T10:04:55.710Z,100538.13
2019-03-27T10:07:24.742Z,100538.94
2019-03-27T10:09:55.127Z,100540.52
2019-03-27T10:12:25.503Z,100538.44
2019-03-27T10:14:57.148Z,100529.88
2019-03-27T10:17:27.938Z,100530.12
2019-03-27T10:20:03.724Z,100530.84
2019-03-27T10:22:33.317Z,100525.58
2019-03-27T10:25:05.437Z,100526.88
2019-03-27T12:42:48.832Z,100566.01
2019-03-27T12:50:05.320Z,100566.98
2019-03-27T13:00:15.225Z,100572.22
2019-03-27T13:29:34.269Z,100602.45
2019-03-27T13:45:14.712Z,100608.99
2019-03-27T13:51:24.591Z,100610.84
2019-03-27T13:54:12.019Z,100610.77
2019-03-27T13:56:43.370Z,100624.75
2019-03-27T13:59:18.302Z,100626.09
2019-03-27T14:01:58.455Z,100617.77
2019-03-27T14:04:34.761Z,100624.02
2019-03-27T14:07:09.063Z,100619.40
2019-03-27T14:09:41.743Z,100627.83
2019-03-27T14:12:13.831Z,100623.80
2019-03-27T14:14:50.602Z,100621.92
2019-03-27T14:17:18.517Z,100627.27
2019-03-27T14:19:52.659Z,100627.80
2019-03-27T14:22:35.245Z,100625.34
2019-03-27T14:25:09.567Z,100625.85
2019-03-27T14:27:45.597Z,100630.86
2019-03-27T14:30:36.040Z,100633.59
2019-03-27T14:33:06.616Z,100638.59
2019-03-27T14:35:39.980Z,100644.16
2019-03-27T14:38:13.303Z,100642.34
2019-03-27T14:40:50.590Z,100653.09
2019-03-27T14:43:27.195Z,100646.41
2019-03-27T14:45:58.607Z,100654.82
2019-03-27T14:48:29.306Z,100657.69
2019-03-27T14:51:07.006Z,100654.69
2019-03-27T14:53:37.952Z,100660.37
2019-03-27T14:56:09.177Z,100668.14
2019-03-27T14:58:39.979Z,100673.02
2019-03-27T15:01:10.393Z,100663.75
2019-03-27T15:03:41.547Z,100672.28
2019-03-27T15:06:11.953Z,100673.12
2019-03-27T15:08:42.399Z,100673.45
2019-03-27T15:11:12.820Z,100677.80
2019-03-27T15:13:43.449Z,100675.35
2019-03-27T15:16:13.931Z,100675.38
2019-03-27T15:18:44.547Z,100680.19
2019-03-27T15:21:14.964Z,100681.15
2019-03-27T15:23:45.461Z,100685.72
2019-03-27T15:26:16.624Z,100693.08
2019-03-27T15:28:50.514Z,100690.27
2019-03-27T15:31:20.866Z,100691.41
2019-03-27T15:33:51.524Z,100697.55
2019-03-27T15:36:21.939Z,100694.19
2019-03-27T15:38:52.453Z,100698.41
2019-03-27T15:41:22.857Z,100697.27
2019-03-27T15:43:56.987Z,100699.23
2019-03-27T15:46:29.379Z,100694.45
2019-03-27T15:49:01.553Z,100695.84
2019-03-27T15:51:36.618Z,100702.14
2019-03-27T15:54:07.860Z,100707.09
2019-03-27T15:56:38.719Z,100709.58
2019-03-27T15:59:09.605Z,100707.46
2019-03-27T16:01:40.198Z,100712.71
2019-03-27T16:04:12.957Z,100713.33
2019-03-27T16:06:43.316Z,100715.23
2019-03-27T16:09:14.820Z,100711.48
2019-03-27T16:11:45.218Z,100720.72
2019-03-27T16:14:15.672Z,100720.88
2019-03-27T16:17:01.337Z,100723.44
2019-03-27T16:19:18.242Z,100730.42
2019-03-27T16:21:48.694Z,100728.63
2019-03-27T16:24:20.770Z,100731.34
2019-03-27T16:27:03.771Z,100728.19
2019-03-27T16:29:23.327Z,100734.59
2019-03-27T16:31:53.743Z,100735.64
2019-03-27T16:34:25.388Z,100746.31
2019-03-27T16:36:55.906Z,100748.64
2019-03-27T16:39:26.414Z,100753.48
2019-03-27T16:41:56.856Z,100751.66
2019-03-27T16:44:27.413Z,100764.36
2019-03-27T16:46:57.819Z,100772.70
2019-03-27T16:49:28.304Z,100766.45
2019-03-27T16:51:58.706Z,100771.50
2019-03-27T16:54:29.176Z,100772.11
2019-03-27T16:56:59.575Z,100772.48
2019-03-27T16:59:30.060Z,100780.64
2019-03-27T17:02:04.863Z,100779.95
2019-03-27T17:04:35.336Z,100778.09
2019-03-27T17:07:05.774Z,100782.16
2019-03-27T17:09:36.239Z,100787.83
2019-03-27T17:12:06.650Z,100792.69
2019-03-27T17:14:37.218Z,100791.64
2019-03-27T17:17:07.609Z,100789.56
2019-03-27T17:19:38.097Z,100792.84
2019-03-27T17:22:19.266Z,100796.57
2019-03-27T17:24:43.222Z,100800.44
2019-03-27T17:27:14.248Z,100799.84
2019-03-27T17:29:44.728Z,100799.48
2019-03-27T17:32:15.147Z,100805.89
2019-03-27T17:34:47.604Z,100805.79
2019-03-27T17:37:17.769Z,100806.85
2019-03-27T17:39:48.230Z,100804.39
2019-03-27T17:42:18.630Z,100797.09
2019-03-27T17:44:51.976Z,100796.48
2019-03-27T17:47:21.525Z,100808.25
2019-03-27T17:49:52.054Z,100797.29
2019-03-27T17:52:22.445Z,100805.28
2019-03-27T17:54:52.972Z,100810.25
2019-03-27T17:57:23.367Z,100803.84
2019-03-27T17:59:53.812Z,100804.75
2019-03-27T18:02:24.208Z,100807.97
2019-03-27T18:04:54.682Z,100796.94
2019-03-27T18:07:25.047Z,100811.03
2019-03-27T18:09:55.505Z,100806.68
2019-03-27T18:12:25.904Z,100811.23
2019-03-27T18:14:56.388Z,100811.45
2019-03-27T18:17:26.810Z,100807.52
2019-03-27T18:19:57.300Z,100805.97
2019-03-27T18:22:27.617Z,100808.32
2019-03-27T18:24:58.051Z,100812.22
2019-03-27T18:27:28.460Z,100808.05
2019-03-27T18:29:58.831Z,100812.95
2019-03-27T18:32:29.225Z,100809.95
2019-03-27T18:34:59.672Z,100807.59
2019-03-27T18:37:30.105Z,100807.91
2019-03-27T18:40:00.534Z,100804.48
2019-03-27T18:42:30.991Z,100805.31
2019-03-27T18:45:01.532Z,100803.30
2019-03-27T18:47:31.964Z,100808.80
2019-03-27T18:50:02.468Z,100807.64
2019-03-27T18:52:32.912Z,100809.05
2019-03-27T18:55:03.748Z,100810.33
2019-03-27T18:57:34.148Z,100815.16
2019-03-27T19:00:09.187Z,100818.45
2019-03-27T19:02:39.608Z,100822.27
2019-03-27T19:05:10.157Z,100820.24
2019-03-27T19:07:40.563Z,100818.75
2019-03-27T19:10:11.110Z,100821.02
2019-03-27T19:12:41.555Z,100831.17
2019-03-27T19:15:12.009Z,100825.84
2019-03-27T19:17:42.439Z,100828.62
2019-03-27T19:20:13.103Z,100827.89
2019-03-27T19:22:43.555Z,100829.63
2019-03-27T19:25:14.007Z,100838.34
2019-03-27T19:27:44.429Z,100837.37
2019-03-27T19:30:15.301Z,100838.45
2019-03-27T19:32:45.677Z,100836.99
2019-03-27T19:35:16.128Z,100835.77
2019-03-27T19:37:46.579Z,100836.18
2019-03-27T19:40:17.140Z,100840.15
2019-03-27T19:42:47.531Z,100837.02
2019-03-27T19:45:18.086Z,100841.77
2019-03-27T19:47:48.485Z,100849.98
2019-03-27T19:50:18.949Z,100854.83
2019-03-27T19:52:49.271Z,100850.70
2019-03-27T19:55:19.655Z,100856.48
2019-03-27T19:57:50.039Z,100865.41
2019-03-27T20:00:21.071Z,100873.00
2019-03-27T20:02:51.487Z,100870.80
2019-03-27T20:05:21.923Z,100871.36
2019-03-27T20:07:52.328Z,100874.67
2019-03-27T20:10:25.178Z,100875.60
2019-03-27T20:12:55.600Z,100883.66
2019-03-27T20:15:26.083Z,100885.52
2019-03-27T20:17:56.513Z,100883.90
2019-03-27T20:20:26.928Z,100893.12
2019-03-27T20:22:57.316Z,100886.47
2019-03-27T20:25:27.790Z,100892.09
2019-03-27T20:27:58.488Z,100892.02
2019-03-27T20:30:28.947Z,100901.13
2019-03-27T20:32:59.354Z,100892.45
2019-03-27T20:35:29.798Z,100899.48
2019-03-27T20:38:00.284Z,100896.17
2019-03-27T20:40:31.083Z,100902.61
2019-03-27T20:43:01.462Z,100908.77
2019-03-27T20:45:31.989Z,100909.32
2019-03-27T20:48:02.391Z,100905.36
2019-03-27T20:50:32.843Z,100906.97
2019-03-27T20:53:03.277Z,100911.87
2019-03-27T20:55:33.714Z,100918.11
2019-03-27T20:58:04.125Z,100926.62
2019-03-27T21:00:34.582Z,100924.91
2019-03-27T21:03:04.974Z,100923.26
2019-03-27T21:05:35.607Z,100928.27
2019-03-27T21:08:06.080Z,100933.48
2019-03-27T21:10:36.563Z,100929.97
2019-03-27T21:13:07.011Z,100946.25
2019-03-27T21:15:38.738Z,100942.66
2019-03-27T21:18:09.604Z,100944.15
2019-03-27T21:20:40.056Z,100946.33
2019-03-27T21:23:10.503Z,100949.28
2019-03-27T21:25:40.987Z,100943.80
2019-03-27T21:28:11.403Z,100946.78
2019-03-27T21:30:41.878Z,100945.91
2019-03-27T21:33:12.288Z,100947.82
2019-03-27T21:35:42.767Z,100942.20
2019-03-27T21:38:13.181Z,100951.45
2019-03-27T21:40:43.646Z,100959.25
2019-03-27T21:43:14.048Z,100961.41
2019-03-27T21:45:44.594Z,100959.17
2019-03-27T21:48:14.988Z,100962.28
2019-03-27T21:50:45.439Z,100965.63
2019-03-27T21:53:15.839Z,100970.14
2019-03-27T21:55:46.287Z,100964.49
2019-03-27T21:58:16.595Z,100971.91
2019-03-27T22:00:47.240Z,100967.23
2019-03-27T22:03:17.662Z,100979.89
2019-03-27T22:05:48.050Z,100979.21
2019-03-27T22:08:18.474Z,100981.95
2019-03-27T22:10:48.911Z,100982.33
2019-03-27T22:13:19.334Z,100987.42
2019-03-27T22:15:49.748Z,100986.16
2019-03-27T22:18:20.165Z,100987.70
2019-03-27T22:20:50.599Z,100989.83
2019-03-27T22:23:20.990Z,100993.23
2019-03-27T22:25:51.442Z,100996.30
2019-03-27T22:28:21.833Z,101001.14
2019-03-27T22:30:52.286Z,101005.76
2019-03-27T22:33:22.689Z,101009.13
2019-03-27T22:35:53.120Z,101008.83
2019-03-27T22:38:23.504Z,101007.55
2019-03-27T22:40:53.942Z,101013.08
2019-03-27T22:43:24.331Z,101018.36
2019-03-27T22:45:54.854Z,101016.59
2019-03-27T22:48:25.260Z,101021.52
2019-03-27T22:50:55.670Z,101024.80
2019-03-27T22:53:26.128Z,101024.77
2019-03-27T22:55:56.598Z,101027.39
2019-03-27T22:58:26.964Z,101025.36
2019-03-27T23:00:57.719Z,101027.98
2019-03-27T23:03:28.114Z,101029.89
2019-03-27T23:05:58.578Z,101033.14
2019-03-27T23:08:28.996Z,101037.80
2019-03-27T23:10:59.442Z,101038.13
2019-03-27T23:13:29.850Z,101040.05
2019-03-27T23:16:00.334Z,101044.33
2019-03-27T23:18:30.740Z,101039.37
2019-03-27T23:21:01.196Z,101040.50
2019-03-27T23:23:31.596Z,101041.69
2019-03-27T23:26:03.399Z,101035.68
2019-03-27T23:28:34.276Z,101036.05
2019-03-27T23:31:04.719Z,101049.45
2019-03-27T23:33:35.120Z,101048.62
2019-03-27T23:36:05.591Z,101052.15
2019-03-27T23:38:36.085Z,101064.66
2019-03-27T23:41:06.551Z,101062.73
2019-03-27T23:43:36.956Z,101060.02
2019-03-27T23:46:07.474Z,101064.44
2019-03-27T23:48:37.979Z,101070.02
2019-03-27T23:51:08.411Z,101067.22
2019-03-27T23:53:38.813Z,101066.46
2019-03-27T23:56:16.652Z,101067.91
2019-03-27T23:58:41.400Z,101064.91
